createdAt,value
2023-01-03T00:01:48.607Z,8.30
2023-01-03T00:04:17.709Z,9.57
2023-01-03T00:06:48.258Z,9.97
2023-01-03T00:09:18.768Z,9.17
2023-01-03T00:12:07.374Z,10.20
2023-01-03T00:14:38.543Z,10.17
2023-01-03T00:17:08.938Z,9.50
2023-01-03T00:19:39.738Z,8.90
2023-01-03T00:22:08.920Z,8.63
2023-01-03T00:24:37.993Z,9.73
2023-01-03T00:27:06.869Z,9.17
2023-01-03T00:29:35.887Z,10.70
2023-01-03T00:32:04.330Z,9.10
2023-01-03T00:34:34.763Z,8.93
2023-01-03T00:37:03.845Z,8.90
2023-01-03T00:39:32.811Z,9.60
2023-01-03T00:42:01.547Z,9.37
2023-01-03T00:44:30.969Z,9.00
2023-01-03T00:47:00.000Z,8.13
2023-01-03T00:49:31.707Z,8.40
2023-01-03T00:52:02.203Z,8.90
2023-01-03T00:54:30.834Z,7.40
2023-01-03T00:56:59.328Z,7.30
2023-01-03T00:59:28.204Z,7.27
2023-01-03T01:01:58.084Z,6.60
2023-01-03T01:04:48.248Z,7.00
2023-01-03T01:07:18.545Z,6.90
2023-01-03T01:09:47.519Z,6.10
2023-01-03T01:12:16.041Z,6.90
2023-01-03T01:14:45.211Z,6.77
2023-01-03T01:17:19.154Z,6.43
2023-01-03T01:19:50.942Z,6.23
2023-01-03T01:22:21.009Z,5.63
2023-01-03T01:24:49.536Z,5.20
2023-01-03T01:27:18.200Z,5.80
2023-01-03T01:29:47.057Z,5.30
2023-01-03T01:32:15.938Z,5.90
2023-01-03T01:34:44.588Z,5.40
2023-01-03T01:37:14.189Z,5.63
2023-01-03T01:39:44.700Z,5.77
2023-01-03T01:42:33.007Z,6.97
2023-01-03T01:45:01.961Z,6.77
2023-01-03T01:47:38.051Z,7.00
2023-01-03T01:50:21.292Z,6.37
2023-01-03T01:52:53.003Z,6.67
2023-01-03T01:55:27.289Z,7.10
2023-01-03T01:57:56.100Z,7.80
2023-01-03T02:00:24.831Z,8.03
2023-01-03T02:02:55.022Z,6.07
2023-01-03T02:05:24.460Z,6.10
2023-01-03T02:07:55.062Z,6.60
2023-01-03T02:10:32.095Z,6.47
2023-01-03T02:13:07.581Z,5.47
2023-01-03T02:15:47.057Z,5.23
2023-01-03T02:18:39.419Z,5.17
2023-01-03T02:22:04.394Z,5.93
2023-01-03T02:25:00.415Z,5.20
2023-01-03T02:28:21.750Z,6.23
2023-01-03T02:30:53.557Z,5.03
2023-01-03T02:33:27.703Z,5.70
2023-01-03T02:36:03.759Z,6.27
2023-01-03T02:38:39.877Z,4.90
2023-01-03T02:41:12.004Z,6.07
2023-01-03T02:43:52.233Z,6.67
2023-01-03T02:46:26.130Z,5.73
2023-01-03T02:49:08.374Z,6.40
2023-01-03T02:51:39.167Z,5.77
2023-01-03T02:54:34.218Z,6.00
2023-01-03T02:57:06.405Z,5.50
2023-01-03T02:59:38.538Z,6.60
2023-01-03T03:02:08.914Z,4.73
2023-01-03T03:04:38.370Z,5.00
2023-01-03T03:07:09.893Z,6.57
2023-01-03T03:09:58.631Z,5.30
2023-01-03T03:12:46.140Z,4.93
2023-01-03T03:15:16.357Z,6.67
2023-01-03T03:17:47.264Z,6.40
2023-01-03T03:20:33.851Z,5.60
2023-01-03T03:23:21.921Z,5.80
2023-01-03T03:25:52.381Z,8.70
2023-01-03T03:28:37.668Z,9.70
2023-01-03T03:31:09.632Z,7.53
2023-01-03T03:33:43.412Z,7.77
2023-01-03T03:36:14.821Z,7.00
2023-01-03T03:38:44.752Z,6.80
2023-01-03T03:41:37.937Z,6.63
2023-01-03T03:44:31.610Z,5.83
2023-01-03T03:47:49.664Z,5.57
2023-01-03T03:50:45.633Z,5.90
2023-01-03T03:53:15.941Z,6.07
2023-01-03T03:55:49.539Z,5.33
2023-01-03T03:58:39.070Z,5.33
2023-01-03T04:01:08.532Z,5.47
2023-01-03T04:03:37.478Z,5.50
2023-01-03T04:06:12.396Z,4.90
2023-01-03T04:08:41.435Z,5.23
2023-01-03T04:11:31.833Z,5.13
2023-01-03T04:14:00.645Z,5.53
2023-01-03T04:16:29.488Z,5.83
2023-01-03T04:18:59.132Z,5.23
2023-01-03T04:21:29.318Z,5.77
2023-01-03T04:23:57.934Z,5.70
2023-01-03T04:26:29.220Z,5.30
2023-01-03T04:28:57.936Z,4.90
2023-01-03T04:31:27.047Z,6.07
2023-01-03T04:33:55.781Z,4.70
2023-01-03T04:36:24.730Z,5.17
2023-01-03T04:38:54.850Z,5.37
2023-01-03T04:41:23.370Z,5.57
2023-01-03T04:44:02.549Z,5.73
2023-01-03T04:46:35.525Z,5.70
2023-01-03T04:49:04.814Z,5.20
2023-01-03T04:51:34.129Z,5.47
2023-01-03T04:54:05.233Z,4.70
2023-01-03T04:56:35.856Z,5.17
2023-01-03T04:59:04.716Z,4.93
2023-01-03T05:01:33.819Z,4.60
2023-01-03T05:04:03.505Z,5.33
2023-01-03T05:06:34.898Z,5.43
2023-01-03T05:09:04.873Z,5.63
2023-01-03T05:11:33.412Z,5.40
2023-01-03T05:14:01.861Z,5.97
2023-01-03T05:16:30.356Z,4.80
2023-01-03T05:18:59.346Z,4.17
2023-01-03T05:21:45.294Z,6.43
2023-01-03T05:24:32.988Z,5.73
2023-01-03T05:27:03.662Z,5.73
2023-01-03T05:29:32.636Z,5.17
2023-01-03T05:32:01.445Z,5.53
2023-01-03T05:34:30.584Z,5.10
2023-01-03T05:36:59.344Z,4.60
2023-01-03T05:39:33.371Z,4.57
2023-01-03T05:42:02.362Z,5.40
2023-01-03T05:44:32.373Z,7.07
2023-01-03T05:47:01.604Z,6.03
2023-01-03T05:49:33.908Z,5.93
2023-01-03T05:52:02.415Z,6.13
2023-01-03T05:54:32.733Z,6.37
2023-01-03T05:57:01.154Z,5.63
2023-01-03T05:59:29.563Z,5.20
2023-01-03T06:01:58.605Z,6.07
2023-01-03T06:04:27.332Z,8.40
2023-01-03T06:06:56.379Z,7.27
2023-01-03T06:09:25.309Z,6.77
2023-01-03T06:11:55.456Z,6.47
2023-01-03T06:14:24.104Z,8.70
2023-01-03T06:17:12.157Z,8.20
2023-01-03T06:19:40.585Z,7.43
2023-01-03T06:22:11.007Z,10.10
2023-01-03T06:24:40.062Z,8.27
2023-01-03T06:27:10.040Z,11.53
2023-01-03T06:29:38.722Z,8.67
2023-01-03T06:32:09.778Z,7.83
2023-01-03T06:34:45.991Z,8.07
2023-01-03T06:37:14.883Z,8.80
2023-01-03T06:39:43.506Z,8.90
2023-01-03T06:42:30.625Z,8.70
2023-01-03T06:45:16.643Z,8.37
2023-01-03T06:48:02.880Z,8.83
2023-01-03T06:50:48.631Z,9.37
2023-01-03T06:53:19.861Z,8.80
2023-01-03T06:55:56.109Z,8.20
2023-01-03T06:58:26.880Z,12.67
2023-01-03T07:00:56.275Z,11.30
2023-01-03T07:03:24.993Z,12.17
2023-01-03T07:05:53.669Z,14.80
2023-01-03T07:08:23.260Z,14.47
2023-01-03T07:10:51.885Z,13.27
2023-01-03T07:13:46.240Z,14.13
2023-01-03T07:16:16.629Z,14.17
2023-01-03T07:18:50.838Z,13.27
2023-01-03T07:21:23.477Z,13.80
2023-01-03T07:23:53.751Z,14.30
2023-01-03T07:26:25.458Z,14.00
2023-01-03T07:28:54.626Z,13.60
2023-01-03T07:31:25.390Z,14.60
2023-01-03T07:33:54.530Z,21.93
2023-01-03T07:36:23.666Z,23.60
2023-01-03T07:38:55.197Z,21.07
2023-01-03T07:41:25.643Z,20.23
2023-01-03T07:43:53.368Z,20.60
2023-01-03T07:46:24.963Z,28.40
2023-01-03T07:48:57.416Z,27.70
2023-01-03T07:51:33.126Z,23.53
2023-01-03T07:54:02.649Z,21.57
2023-01-03T07:56:31.196Z,19.50
2023-01-03T07:59:00.155Z,19.40
2023-01-03T08:01:35.479Z,16.43
2023-01-03T08:04:05.913Z,16.83
2023-01-03T08:06:34.872Z,18.30
2023-01-03T08:09:34.826Z,20.00
2023-01-03T08:12:26.289Z,17.47
2023-01-03T08:15:00.173Z,16.20
2023-01-03T08:17:30.702Z,15.30
2023-01-03T08:19:59.315Z,9.50
2023-01-03T08:22:29.646Z,9.70
2023-01-03T08:25:46.347Z,19.27
2023-01-03T08:28:15.149Z,21.77
2023-01-03T08:30:48.382Z,24.80
2023-01-03T08:33:20.584Z,24.93
2023-01-03T08:35:52.869Z,23.37
2023-01-03T08:38:24.308Z,20.53
2023-01-03T08:40:53.041Z,20.13
2023-01-03T08:43:22.205Z,21.90
2023-01-03T08:45:51.296Z,22.60
2023-01-03T08:48:48.351Z,22.57
2023-01-03T08:51:17.128Z,22.20
2023-01-03T08:53:45.970Z,20.70
2023-01-03T08:56:14.648Z,20.80
2023-01-03T08:58:43.603Z,20.20
2023-01-03T09:01:12.571Z,26.57
2023-01-03T09:03:42.571Z,26.00
2023-01-03T09:06:12.600Z,24.53
2023-01-03T09:08:41.091Z,23.67
2023-01-03T09:11:10.964Z,24.00
2023-01-03T09:13:39.898Z,23.23
2023-01-03T09:16:10.803Z,22.20
2023-01-03T09:18:40.566Z,20.87
2023-01-03T09:21:09.527Z,22.27
2023-01-03T09:23:39.309Z,18.33
2023-01-03T09:26:08.611Z,19.90
2023-01-03T09:28:37.844Z,19.73
2023-01-03T09:31:07.232Z,17.77
2023-01-03T09:33:36.239Z,19.00
2023-01-03T09:36:08.504Z,18.50
2023-01-03T09:38:39.341Z,18.57
2023-01-03T09:41:15.346Z,18.07
2023-01-03T09:43:46.147Z,18.00
2023-01-03T09:46:19.804Z,17.73
2023-01-03T09:48:48.692Z,21.20
2023-01-03T09:51:37.719Z,20.90
2023-01-03T09:54:29.782Z,20.43
2023-01-03T09:57:15.949Z,17.57
2023-01-03T10:00:02.443Z,23.47
2023-01-03T10:03:27.217Z,15.10
2023-01-03T10:06:06.899Z,15.77
2023-01-03T10:08:59.988Z,17.60
2023-01-03T10:11:34.843Z,21.67
2023-01-03T10:14:19.059Z,21.40
2023-01-03T10:16:56.384Z,22.60
2023-01-03T10:19:45.157Z,20.80
2023-01-03T10:22:16.022Z,22.07
2023-01-03T10:24:47.598Z,20.13
2023-01-03T10:27:22.579Z,21.20
2023-01-03T10:29:57.445Z,19.90
2023-01-03T10:32:43.429Z,16.47
2023-01-03T10:35:21.244Z,15.67
2023-01-03T10:37:53.000Z,13.37
2023-01-03T10:40:21.679Z,12.83
2023-01-03T10:42:55.612Z,14.13
2023-01-03T10:45:24.596Z,14.93
2023-01-03T10:48:00.289Z,16.90
2023-01-03T10:50:29.883Z,15.70
2023-01-03T10:53:02.414Z,14.00
2023-01-03T10:55:31.023Z,14.40
2023-01-03T10:58:03.184Z,14.90
2023-01-03T11:00:34.028Z,17.27
2023-01-03T11:03:16.665Z,13.80
2023-01-03T11:05:46.860Z,11.67
2023-01-03T11:08:18.381Z,10.83
2023-01-03T11:10:56.068Z,10.33
2023-01-03T11:13:31.350Z,10.07
2023-01-03T11:16:03.735Z,10.00
2023-01-03T11:18:33.258Z,11.70
2023-01-03T11:21:11.053Z,12.77
2023-01-03T11:24:03.855Z,12.30
2023-01-03T11:26:47.809Z,10.17
2023-01-03T11:30:00.031Z,10.30
2023-01-03T11:32:41.730Z,9.50
2023-01-03T11:35:34.557Z,10.23
2023-01-03T11:38:12.166Z,8.37
2023-01-03T11:40:47.518Z,9.23
2023-01-03T11:43:27.679Z,9.10
2023-01-03T11:46:10.253Z,8.87
2023-01-03T11:49:00.716Z,9.10
2023-01-03T11:51:36.368Z,9.27
2023-01-03T11:54:13.854Z,8.10
2023-01-03T11:56:44.815Z,8.63
2023-01-03T11:59:41.734Z,8.40
2023-01-03T12:02:55.814Z,8.50
2023-01-03T12:05:37.455Z,10.13
2023-01-03T12:08:17.334Z,10.63
2023-01-03T12:10:49.631Z,10.83
2023-01-03T12:13:29.671Z,10.03
2023-01-03T12:16:04.237Z,9.23
2023-01-03T12:18:43.948Z,8.47
2023-01-03T12:21:16.413Z,7.53
2023-01-03T12:23:47.019Z,9.20
2023-01-03T12:26:16.688Z,9.30
2023-01-03T12:28:50.124Z,8.83
2023-01-03T12:31:31.347Z,9.40
2023-01-03T12:34:08.986Z,13.80
2023-01-03T12:36:43.207Z,12.23
2023-01-03T12:39:33.699Z,12.90
2023-01-03T12:42:07.115Z,16.03
2023-01-03T12:44:38.878Z,14.80
2023-01-03T12:47:09.420Z,36.43
2023-01-03T12:49:42.495Z,26.10
2023-01-03T12:52:16.738Z,31.40
2023-01-03T12:54:49.170Z,31.17
2023-01-03T12:57:33.724Z,30.33
2023-01-03T13:00:12.517Z,23.43
2023-01-03T13:02:47.928Z,28.00
2023-01-03T13:05:26.503Z,28.37
2023-01-03T13:08:04.318Z,22.23
2023-01-03T13:10:35.481Z,24.30
2023-01-03T13:13:04.992Z,22.07
2023-01-03T13:15:37.876Z,20.93
2023-01-03T13:18:34.451Z,18.37
2023-01-03T13:21:41.867Z,21.50
2023-01-03T13:24:12.942Z,22.77
2023-01-03T13:27:37.197Z,22.07
2023-01-03T13:30:20.513Z,17.83
2023-01-03T13:32:52.134Z,17.60
2023-01-03T13:35:31.420Z,23.37
2023-01-03T13:38:13.278Z,22.27
2023-01-03T13:41:16.689Z,19.33
2023-01-03T13:43:39.967Z,19.30
2023-01-03T13:46:28.004Z,19.60
2023-01-03T13:48:58.845Z,17.97
2023-01-03T13:51:54.111Z,19.07
2023-01-03T13:55:06.753Z,18.00
2023-01-03T14:00:33.730Z,19.50
2023-01-03T14:03:21.647Z,20.00
2023-01-03T14:06:04.090Z,19.40
2023-01-03T14:08:42.994Z,23.40
2023-01-03T14:11:30.432Z,23.20
2023-01-03T14:14:01.413Z,15.30
2023-01-03T14:17:02.585Z,17.97
2023-01-03T14:19:32.684Z,16.60
2023-01-03T14:22:26.841Z,16.20
2023-01-03T14:24:56.814Z,13.40
2023-01-03T14:27:29.305Z,11.70
2023-01-03T14:29:57.932Z,14.20
2023-01-03T14:32:34.411Z,13.37
2023-01-03T14:35:04.052Z,15.33
2023-01-03T14:37:35.171Z,14.07
2023-01-03T14:40:06.975Z,17.90
2023-01-03T14:42:35.681Z,21.13
2023-01-03T14:45:06.367Z,19.20
2023-01-03T14:47:38.898Z,18.73
2023-01-03T14:50:09.081Z,18.97
2023-01-03T14:52:41.068Z,17.60
2023-01-03T14:55:14.606Z,18.20
2023-01-03T14:57:44.265Z,21.47
2023-01-03T15:00:18.620Z,20.30
2023-01-03T15:02:51.509Z,20.83
2023-01-03T15:05:29.092Z,20.10
2023-01-03T15:08:09.427Z,24.13
2023-01-03T15:10:47.149Z,20.80
2023-01-03T15:13:20.687Z,18.47
2023-01-03T15:15:55.377Z,20.00
2023-01-03T15:18:27.226Z,17.00
2023-01-03T15:20:57.003Z,18.77
2023-01-03T15:23:38.931Z,16.70
2023-01-03T15:26:08.502Z,18.13
2023-01-03T15:28:38.701Z,15.90
2023-01-03T15:31:47.157Z,18.67
2023-01-03T15:34:18.707Z,18.90
2023-01-03T15:36:49.748Z,19.33
2023-01-03T15:39:20.238Z,19.43
2023-01-03T15:42:42.227Z,17.93
2023-01-03T15:44:55.680Z,18.40
2023-01-03T15:47:25.501Z,17.77
2023-01-03T15:49:58.314Z,17.63
2023-01-03T15:52:31.443Z,15.87
2023-01-03T15:55:00.218Z,28.00
2023-01-03T15:57:32.045Z,30.90
2023-01-03T16:00:03.729Z,31.80
2023-01-03T16:02:33.313Z,24.80
2023-01-03T16:05:03.883Z,19.67
2023-01-03T16:07:32.831Z,19.43
2023-01-03T16:10:01.559Z,15.97
2023-01-03T16:12:34.120Z,15.90
2023-01-03T16:15:03.842Z,13.90
2023-01-03T16:17:32.684Z,14.23
2023-01-03T16:20:03.093Z,12.87
2023-01-03T16:22:34.907Z,12.27
2023-01-03T16:25:04.330Z,11.40
2023-01-03T16:27:33.406Z,10.90
2023-01-03T16:30:01.856Z,10.93
2023-01-03T16:32:31.423Z,10.63
2023-01-03T16:35:03.531Z,11.90
2023-01-03T16:37:32.608Z,10.90
2023-01-03T16:40:01.037Z,11.67
2023-01-03T16:42:29.779Z,11.30
2023-01-03T16:44:58.559Z,11.07
2023-01-03T16:47:32.944Z,10.00
2023-01-03T16:50:31.806Z,10.37
2023-01-03T16:53:00.469Z,10.83
2023-01-03T16:55:31.140Z,10.10
2023-01-03T16:58:00.661Z,10.80
2023-01-03T17:03:14.340Z,9.60
2023-01-03T17:05:44.524Z,10.23
2023-01-03T17:08:17.966Z,10.40
2023-01-03T17:10:48.799Z,9.50
2023-01-03T17:13:26.600Z,9.63
2023-01-03T17:15:56.046Z,10.20
2023-01-03T17:18:26.969Z,9.23
2023-01-03T17:21:00.152Z,9.60
2023-01-03T17:23:54.364Z,8.90
2023-01-03T17:26:24.359Z,9.37
2023-01-03T17:28:53.641Z,9.83
2023-01-03T17:31:23.875Z,15.63
2023-01-03T17:33:53.343Z,20.57
2023-01-03T17:36:26.181Z,12.20
2023-01-03T17:39:00.236Z,11.17
2023-01-03T17:41:46.810Z,9.73
2023-01-03T17:44:16.125Z,13.70
2023-01-03T17:47:02.392Z,10.70
2023-01-03T17:49:31.220Z,10.40
2023-01-03T17:52:02.980Z,9.20
2023-01-03T17:54:33.344Z,9.57
2023-01-03T17:57:01.944Z,9.00
2023-01-03T17:59:30.973Z,10.30
2023-01-03T18:01:59.955Z,9.57
2023-01-03T18:04:50.237Z,11.70
2023-01-03T18:07:21.940Z,11.53
2023-01-03T18:09:50.995Z,12.37
2023-01-03T18:12:21.452Z,8.70
2023-01-03T18:14:50.501Z,10.70
2023-01-03T18:17:27.758Z,10.70
2023-01-03T18:19:57.322Z,9.43
2023-01-03T18:22:28.138Z,11.53
2023-01-03T18:24:57.489Z,11.00
2023-01-03T18:27:27.562Z,10.80
2023-01-03T18:29:58.835Z,10.73
2023-01-03T18:32:29.250Z,10.27
2023-01-03T18:35:00.148Z,9.50
2023-01-03T18:37:34.115Z,9.77
2023-01-03T18:40:07.443Z,10.17
2023-01-03T18:42:53.497Z,10.90
2023-01-03T18:45:22.252Z,10.40
2023-01-03T18:47:50.813Z,9.20
2023-01-03T18:50:20.625Z,10.30
2023-01-03T18:52:51.277Z,10.47
2023-01-03T18:55:22.106Z,11.37
2023-01-03T18:57:51.493Z,11.70
2023-01-03T19:00:22.363Z,10.13
2023-01-03T19:02:51.407Z,10.97
2023-01-03T19:05:20.747Z,10.87
2023-01-03T19:08:05.855Z,9.53
2023-01-03T19:10:34.615Z,10.33
2023-01-03T19:13:03.672Z,8.60
2023-01-03T19:15:32.533Z,9.00
2023-01-03T19:18:02.185Z,11.80
2023-01-03T19:20:30.622Z,9.53
2023-01-03T19:22:59.702Z,9.63
2023-01-03T19:25:32.207Z,10.63
2023-01-03T19:28:02.406Z,9.50
2023-01-03T19:30:39.065Z,9.60
2023-01-03T19:33:16.181Z,10.10
2023-01-03T19:36:19.153Z,10.10
2023-01-03T19:39:06.199Z,10.80
2023-01-03T19:41:57.555Z,8.00
2023-01-03T19:44:26.925Z,9.43
2023-01-03T19:46:56.650Z,9.57
2023-01-03T19:49:25.144Z,10.17
2023-01-03T19:51:54.406Z,9.97
2023-01-03T19:54:23.429Z,10.27
2023-01-03T19:56:56.672Z,8.30
2023-01-03T19:59:28.481Z,8.17
2023-01-03T20:02:24.200Z,8.90
2023-01-03T20:04:46.656Z,10.10
2023-01-03T20:07:16.288Z,9.90
2023-01-03T20:09:47.554Z,8.00
2023-01-03T20:12:22.465Z,7.53
2023-01-03T20:14:52.508Z,6.43
2023-01-03T20:17:22.246Z,5.07
2023-01-03T20:19:51.306Z,5.57
2023-01-03T20:22:53.456Z,4.87
2023-01-03T20:25:24.904Z,5.27
2023-01-03T20:28:06.146Z,4.63
2023-01-03T20:30:36.077Z,5.27
2023-01-03T20:33:10.449Z,4.57
2023-01-03T20:38:28.363Z,4.23
2023-01-03T20:40:58.002Z,4.30
2023-01-03T20:43:28.663Z,5.70
2023-01-03T20:46:01.527Z,4.73
2023-01-03T20:48:30.777Z,3.70
2023-01-03T20:51:00.166Z,4.20
2023-01-03T20:53:29.540Z,4.40
2023-01-03T20:55:58.266Z,4.07
2023-01-03T20:58:28.735Z,4.80
2023-01-03T21:01:04.662Z,4.20
2023-01-03T21:03:34.946Z,4.10
2023-01-03T21:06:04.700Z,4.03
2023-01-03T21:08:50.741Z,3.63
2023-01-03T21:11:19.691Z,4.10
2023-01-03T21:13:49.574Z,3.90
2023-01-03T21:16:32.433Z,4.03
2023-01-03T21:19:06.877Z,4.70
2023-01-03T21:21:38.829Z,3.30
2023-01-03T21:24:08.243Z,3.50
2023-01-03T21:26:37.291Z,3.30
2023-01-03T21:29:07.598Z,3.27
2023-01-03T21:31:37.512Z,3.70
2023-01-03T21:34:08.038Z,4.43
2023-01-03T21:36:38.022Z,3.20
2023-01-03T21:39:06.854Z,2.70
2023-01-03T21:41:56.946Z,6.43
2023-01-03T21:44:27.519Z,3.30
2023-01-03T21:46:56.203Z,4.20
2023-01-03T21:49:24.765Z,3.70
2023-01-03T21:51:53.870Z,4.00
2023-01-03T21:54:22.689Z,3.60
2023-01-03T21:56:51.765Z,3.50
2023-01-03T21:59:20.828Z,3.73
2023-01-03T22:02:08.770Z,3.30
2023-01-03T22:04:37.683Z,3.67
2023-01-03T22:07:07.756Z,5.77
2023-01-03T22:09:54.241Z,5.80
2023-01-03T22:12:23.100Z,7.47
2023-01-03T22:14:56.206Z,5.30
2023-01-03T22:17:26.097Z,4.97
2023-01-03T22:19:54.822Z,3.53
2023-01-03T22:22:24.239Z,4.13
2023-01-03T22:24:53.073Z,4.40
2023-01-03T22:27:21.624Z,3.30
2023-01-03T22:29:50.341Z,3.90
2023-01-03T22:32:19.049Z,4.40
2023-01-03T22:34:48.851Z,4.97
2023-01-03T22:37:18.056Z,3.97
2023-01-03T22:39:47.624Z,3.80
2023-01-03T22:42:19.758Z,4.07
2023-01-03T22:44:56.523Z,3.80
2023-01-03T22:47:25.262Z,3.83
2023-01-03T22:49:55.921Z,3.03
2023-01-03T22:52:27.477Z,4.00
2023-01-03T22:54:56.027Z,3.53
2023-01-03T22:57:27.473Z,3.50
2023-01-03T22:59:55.749Z,3.87
2023-01-03T23:02:28.824Z,4.00
2023-01-03T23:04:59.310Z,4.50
2023-01-03T23:07:27.944Z,4.87
2023-01-03T23:09:56.269Z,5.07
2023-01-03T23:12:42.223Z,4.80
2023-01-03T23:15:11.642Z,4.40
2023-01-03T23:17:58.900Z,5.40
2023-01-03T23:20:31.646Z,4.90
2023-01-03T23:23:03.221Z,4.97
2023-01-03T23:25:33.363Z,4.80
2023-01-03T23:28:01.849Z,6.00
2023-01-03T23:30:30.636Z,4.43
2023-01-03T23:32:59.476Z,3.83
2023-01-03T23:35:32.344Z,4.00
2023-01-03T23:38:00.996Z,5.37
2023-01-03T23:40:29.990Z,3.20
2023-01-03T23:43:01.876Z,3.00
2023-01-03T23:45:33.503Z,3.33
2023-01-03T23:48:02.357Z,3.37
2023-01-03T23:50:32.134Z,2.63
2023-01-03T23:53:00.718Z,3.50
2023-01-03T23:55:29.843Z,2.90
2023-01-03T23:57:58.488Z,3.23
